createdAt,value
2019-03-31T00:01:08.314Z,63.10
2019-03-31T00:03:37.516Z,63.27
2019-03-31T00:06:07.077Z,61.83
2019-03-31T00:08:36.517Z,61.10
2019-03-31T00:11:06.116Z,66.20
2019-03-31T00:13:35.604Z,65.83
2019-03-31T00:16:05.577Z,68.30
2019-03-31T00:18:35.096Z,61.57
2019-03-31T00:21:03.862Z,64.20
2019-03-31T00:23:32.612Z,66.50
2019-03-31T00:26:02.130Z,69.60
2019-03-31T00:28:30.800Z,74.67
2019-03-31T00:31:00.472Z,73.30
2019-03-31T00:33:29.977Z,82.27
2019-03-31T00:35:59.492Z,75.33
2019-03-31T00:38:29.028Z,78.60
2019-03-31T00:40:58.660Z,66.70
2019-03-31T00:43:28.377Z,70.57
2019-03-31T00:45:57.973Z,69.93
2019-03-31T00:48:27.604Z,70.03
2019-03-31T00:50:57.106Z,72.67
2019-03-31T00:53:26.710Z,71.40
2019-03-31T00:55:56.609Z,68.17
2019-03-31T00:58:26.310Z,69.60
2019-03-31T01:01:17.075Z,70.97
2019-03-31T01:03:46.954Z,70.40
2019-03-31T01:06:17.549Z,61.40
2019-03-31T01:08:47.129Z,66.93
2019-03-31T01:11:23.513Z,64.67
2019-03-31T01:13:53.513Z,68.20
2019-03-31T01:16:23.190Z,63.63
2019-03-31T01:18:52.709Z,66.93
2019-03-31T01:21:22.477Z,65.87
2019-03-31T01:23:52.465Z,63.60
2019-03-31T01:26:22.505Z,66.17
2019-03-31T01:28:53.022Z,63.47
2019-03-31T01:31:22.674Z,63.70
2019-03-31T01:33:52.266Z,63.57
2019-03-31T01:36:22.134Z,65.37
2019-03-31T01:38:52.098Z,66.97
2019-03-31T01:41:22.012Z,66.80
2019-03-31T01:43:51.702Z,62.77
2019-03-31T01:46:24.267Z,65.30
2019-03-31T01:48:53.790Z,72.87
2019-03-31T01:51:23.406Z,68.87
2019-03-31T01:53:52.890Z,71.50
2019-03-31T01:56:22.798Z,67.20
2019-03-31T01:58:52.310Z,68.17
2019-03-31T02:01:21.894Z,73.70
2019-03-31T02:03:51.802Z,73.30
2019-03-31T02:06:21.322Z,66.00
2019-03-31T02:08:50.907Z,68.10
2019-03-31T02:11:20.514Z,60.87
2019-03-31T02:13:50.103Z,69.43
2019-03-31T02:16:19.666Z,65.67
2019-03-31T02:18:49.197Z,69.20
2019-03-31T02:21:18.818Z,67.00
2019-03-31T02:23:48.344Z,62.07
2019-03-31T02:26:17.939Z,66.37
2019-03-31T02:28:47.510Z,59.03
2019-03-31T02:31:17.108Z,62.17
2019-03-31T02:33:47.257Z,63.20
2019-03-31T02:36:16.768Z,65.00
2019-03-31T02:38:46.564Z,63.47
2019-03-31T02:41:16.175Z,68.80
2019-03-31T02:43:45.821Z,67.57
2019-03-31T02:46:15.411Z,66.03
2019-03-31T02:48:45.009Z,63.60
2019-03-31T02:51:14.716Z,69.60
2019-03-31T02:53:44.284Z,64.67
2019-03-31T02:56:15.768Z,70.50
2019-03-31T02:58:45.732Z,66.20
2019-03-31T03:01:16.715Z,64.83
2019-03-31T03:03:47.880Z,67.53
2019-03-31T03:06:19.123Z,73.73
2019-03-31T03:08:51.700Z,67.17
2019-03-31T03:11:22.780Z,65.70
2019-03-31T03:13:53.360Z,62.40
2019-03-31T03:16:23.187Z,64.87
2019-03-31T03:18:52.703Z,69.20
2019-03-31T03:21:24.815Z,65.47
2019-03-31T03:23:54.038Z,66.10
2019-03-31T03:26:23.728Z,59.83
2019-03-31T03:28:53.404Z,60.60
2019-03-31T03:31:22.985Z,59.53
2019-03-31T03:33:52.590Z,60.53
2019-03-31T03:36:22.636Z,61.63
2019-03-31T03:38:52.220Z,55.87
2019-03-31T03:41:21.721Z,52.40
2019-03-31T03:43:55.664Z,57.07
2019-03-31T03:46:22.741Z,59.60
2019-03-31T03:48:52.192Z,59.63
2019-03-31T03:51:21.788Z,58.20
2019-03-31T03:53:51.403Z,61.30
2019-03-31T03:56:20.961Z,57.93
2019-03-31T03:58:50.445Z,64.07
2019-03-31T04:01:25.258Z,60.50
2019-03-31T04:03:54.731Z,58.30
2019-03-31T04:06:26.024Z,59.40
2019-03-31T04:08:55.549Z,57.13
2019-03-31T04:11:27.433Z,60.47
2019-03-31T04:13:57.851Z,60.47
2019-03-31T04:16:27.736Z,55.90
2019-03-31T04:18:57.769Z,54.80
2019-03-31T04:21:27.638Z,59.97
2019-03-31T04:23:58.021Z,59.90
2019-03-31T04:26:27.773Z,57.43
2019-03-31T04:28:57.935Z,56.40
2019-03-31T04:31:27.457Z,62.87
2019-03-31T04:33:57.359Z,61.57
2019-03-31T04:36:26.897Z,58.77
2019-03-31T04:39:00.099Z,56.97
2019-03-31T04:41:27.785Z,50.63
2019-03-31T04:43:57.309Z,53.73
2019-03-31T04:46:26.790Z,53.57
2019-03-31T04:48:56.222Z,51.27
2019-03-31T04:51:25.717Z,52.57
2019-03-31T04:53:55.262Z,51.10
2019-03-31T04:56:24.749Z,53.87
2019-03-31T04:58:54.258Z,55.87
2019-03-31T05:01:23.746Z,57.00
2019-03-31T05:04:04.465Z,49.27
2019-03-31T05:06:24.478Z,50.63
2019-03-31T05:08:53.898Z,52.33
2019-03-31T05:11:23.386Z,47.30
2019-03-31T05:13:52.922Z,45.93
2019-03-31T05:16:22.510Z,48.93
2019-03-31T05:18:52.106Z,44.97
2019-03-31T05:21:21.987Z,45.53
2019-03-31T05:23:51.607Z,41.37
2019-03-31T05:26:21.142Z,46.63
2019-03-31T05:28:50.742Z,40.73
2019-03-31T05:31:20.298Z,43.83
2019-03-31T05:33:50.734Z,42.13
2019-03-31T05:36:20.206Z,42.30
2019-03-31T05:38:49.730Z,41.10
2019-03-31T05:41:19.518Z,43.43
2019-03-31T05:43:49.095Z,40.03
2019-03-31T05:46:18.767Z,40.70
2019-03-31T05:48:48.247Z,38.97
2019-03-31T05:51:17.743Z,40.63
2019-03-31T05:53:47.267Z,41.60
2019-03-31T05:56:16.759Z,39.27
2019-03-31T05:58:46.335Z,39.37
2019-03-31T06:01:15.755Z,36.53
2019-03-31T06:03:45.288Z,36.10
2019-03-31T06:06:15.066Z,34.37
2019-03-31T06:08:44.499Z,35.07
2019-03-31T06:11:14.063Z,33.97
2019-03-31T06:13:43.661Z,31.53
2019-03-31T06:16:13.239Z,31.63
2019-03-31T06:18:42.723Z,27.57
2019-03-31T06:21:12.347Z,30.67
2019-03-31T06:23:42.214Z,30.17
2019-03-31T06:26:11.704Z,30.37
2019-03-31T06:28:41.443Z,25.80
2019-03-31T06:31:10.931Z,29.33
2019-03-31T06:33:40.359Z,27.97
2019-03-31T06:36:09.811Z,25.80
2019-03-31T06:38:39.383Z,25.70
2019-03-31T06:41:08.975Z,27.97
2019-03-31T06:43:38.795Z,26.13
2019-03-31T06:46:08.240Z,25.77
2019-03-31T06:48:38.189Z,29.53
2019-03-31T06:51:07.843Z,26.37
2019-03-31T06:53:37.331Z,25.90
2019-03-31T06:56:06.748Z,23.47
2019-03-31T06:58:36.251Z,31.20
2019-03-31T07:01:05.741Z,26.07
2019-03-31T07:03:35.620Z,27.20
2019-03-31T07:06:05.176Z,24.20
2019-03-31T07:08:34.680Z,24.63
2019-03-31T07:11:04.199Z,20.70
2019-03-31T07:13:33.782Z,24.97
2019-03-31T07:16:03.273Z,22.30
2019-03-31T07:18:32.764Z,25.60
2019-03-31T07:21:02.194Z,21.80
2019-03-31T07:23:31.608Z,24.00
2019-03-31T07:26:01.138Z,21.83
2019-03-31T07:28:30.760Z,21.93
2019-03-31T07:31:00.345Z,20.80
2019-03-31T07:33:29.920Z,24.87
2019-03-31T07:35:59.510Z,23.13
2019-03-31T07:38:38.726Z,17.77
2019-03-31T07:41:11.961Z,19.73
2019-03-31T07:43:31.516Z,20.40
2019-03-31T07:46:01.037Z,19.80
2019-03-31T07:48:30.473Z,18.30
2019-03-31T07:51:00.216Z,19.00
2019-03-31T07:53:29.721Z,18.67
2019-03-31T07:55:59.245Z,19.33
2019-03-31T07:58:28.878Z,17.47
2019-03-31T08:00:58.390Z,18.90
2019-03-31T08:03:28.277Z,19.03
2019-03-31T08:05:57.860Z,13.20
2019-03-31T08:08:27.293Z,16.57
2019-03-31T08:10:56.893Z,15.83
2019-03-31T08:13:26.429Z,17.70
2019-03-31T08:15:56.033Z,15.33
2019-03-31T08:18:25.645Z,14.30
2019-03-31T08:20:55.313Z,19.33
2019-03-31T08:23:24.941Z,15.07
2019-03-31T08:25:54.577Z,18.67
2019-03-31T08:28:25.005Z,21.00
2019-03-31T08:30:54.769Z,13.83
2019-03-31T08:33:24.321Z,15.23
2019-03-31T08:35:53.909Z,19.13
2019-03-31T08:38:24.624Z,10.57
2019-03-31T08:40:55.089Z,13.07
2019-03-31T08:43:24.597Z,10.63
2019-03-31T08:45:54.124Z,12.83
2019-03-31T08:48:23.713Z,10.27
2019-03-31T08:50:53.226Z,11.80
2019-03-31T08:53:22.730Z,14.90
2019-03-31T08:55:52.246Z,12.20
2019-03-31T08:58:21.870Z,9.73
2019-03-31T09:00:55.409Z,11.50
2019-03-31T09:03:24.874Z,10.87
2019-03-31T09:06:01.760Z,10.20
2019-03-31T09:08:25.818Z,11.10
2019-03-31T09:10:55.347Z,8.73
2019-03-31T09:13:24.846Z,13.40
2019-03-31T09:15:54.273Z,11.33
2019-03-31T09:18:23.858Z,11.47
2019-03-31T09:20:54.050Z,12.33
2019-03-31T09:23:23.662Z,12.00
2019-03-31T09:25:53.258Z,14.77
2019-03-31T09:28:22.795Z,10.87
2019-03-31T09:30:52.386Z,10.57
2019-03-31T09:33:21.832Z,9.50
2019-03-31T09:35:51.643Z,10.83
2019-03-31T09:38:21.134Z,10.73
2019-03-31T09:40:50.774Z,11.10
2019-03-31T09:43:20.291Z,10.80
2019-03-31T09:45:49.908Z,7.57
2019-03-31T09:48:19.494Z,10.73
2019-03-31T09:50:49.039Z,9.60
2019-03-31T09:53:18.688Z,11.00
2019-03-31T09:55:48.271Z,11.97
2019-03-31T09:58:18.184Z,10.47
2019-03-31T10:00:49.839Z,7.80
2019-03-31T10:03:19.683Z,6.43
2019-03-31T10:05:49.414Z,5.20
2019-03-31T10:08:22.179Z,5.83
2019-03-31T10:10:51.634Z,6.53
2019-03-31T10:13:21.185Z,7.13
2019-03-31T10:15:50.847Z,7.10
2019-03-31T10:18:20.320Z,8.63
2019-03-31T10:20:50.264Z,8.63
2019-03-31T10:23:19.837Z,8.63
2019-03-31T10:25:49.383Z,6.97
2019-03-31T10:28:18.891Z,6.93
2019-03-31T10:30:48.524Z,6.03
2019-03-31T10:33:18.124Z,7.00
2019-03-31T10:35:47.651Z,6.87
2019-03-31T10:38:17.279Z,5.90
2019-03-31T10:40:46.912Z,5.80
2019-03-31T10:43:16.527Z,9.17
2019-03-31T10:45:46.124Z,4.97
2019-03-31T10:48:20.726Z,9.83
2019-03-31T10:50:47.468Z,6.67
2019-03-31T10:53:16.978Z,6.37
2019-03-31T10:55:46.631Z,6.43
2019-03-31T10:58:16.380Z,11.30
2019-03-31T11:00:45.912Z,6.50
2019-03-31T11:03:15.487Z,6.30
2019-03-31T11:05:45.100Z,5.53
2019-03-31T11:08:15.046Z,4.73
2019-03-31T11:10:44.676Z,5.53
2019-03-31T11:13:14.228Z,6.50
2019-03-31T11:15:43.768Z,4.80
2019-03-31T11:18:13.800Z,6.03
2019-03-31T11:20:43.308Z,6.87
2019-03-31T11:23:17.808Z,8.30
2019-03-31T11:25:47.532Z,7.23
2019-03-31T11:28:17.176Z,9.17
2019-03-31T11:30:46.840Z,10.40
2019-03-31T11:33:16.536Z,6.70
2019-03-31T11:35:46.052Z,9.53
2019-03-31T11:38:15.588Z,7.30
2019-03-31T11:40:45.609Z,6.57
2019-03-31T11:43:15.089Z,10.57
2019-03-31T11:45:44.642Z,6.50
2019-03-31T11:48:14.180Z,5.67
2019-03-31T11:50:43.898Z,7.27
2019-03-31T11:53:13.416Z,7.83
2019-03-31T11:55:43.057Z,8.13
2019-03-31T11:58:12.756Z,8.70
2019-03-31T12:00:48.321Z,10.07
2019-03-31T12:03:17.939Z,10.40
2019-03-31T12:05:47.433Z,8.80
2019-03-31T12:08:17.114Z,8.70
2019-03-31T12:10:46.705Z,8.70
2019-03-31T12:13:16.240Z,8.53
2019-03-31T12:15:45.757Z,10.77
2019-03-31T12:18:15.309Z,7.70
2019-03-31T12:20:44.866Z,8.20
2019-03-31T12:23:15.305Z,8.33
2019-03-31T12:25:45.277Z,11.47
2019-03-31T12:28:14.837Z,9.43
2019-03-31T12:30:44.466Z,8.57
2019-03-31T12:33:14.010Z,9.53
2019-03-31T12:35:43.658Z,10.87
2019-03-31T12:38:13.186Z,6.43
2019-03-31T12:40:42.710Z,6.87
2019-03-31T12:43:12.326Z,7.47
2019-03-31T12:45:43.350Z,8.20
2019-03-31T12:48:13.296Z,8.00
2019-03-31T12:50:42.963Z,7.70
2019-03-31T12:53:12.546Z,9.47
2019-03-31T12:55:42.458Z,7.23
2019-03-31T12:58:12.042Z,7.87
2019-03-31T13:00:41.622Z,8.33
2019-03-31T13:03:11.172Z,5.67
2019-03-31T13:05:40.700Z,10.33
2019-03-31T13:08:10.383Z,6.77
2019-03-31T13:10:39.946Z,7.20
2019-03-31T13:13:09.458Z,10.27
2019-03-31T13:15:39.016Z,8.37
2019-03-31T13:18:08.622Z,7.80
2019-03-31T13:20:38.292Z,12.23
2019-03-31T13:23:08.010Z,7.90
2019-03-31T13:25:37.586Z,7.40
2019-03-31T13:28:07.195Z,7.70
2019-03-31T13:30:36.743Z,6.90
2019-03-31T13:33:06.466Z,10.63
2019-03-31T13:35:35.966Z,9.03
2019-03-31T13:38:11.320Z,11.10
2019-03-31T13:40:37.371Z,7.27
2019-03-31T13:43:07.363Z,8.47
2019-03-31T13:45:36.908Z,8.30
2019-03-31T13:48:06.480Z,6.00
2019-03-31T13:50:36.067Z,6.40
2019-03-31T13:53:05.659Z,8.03
2019-03-31T13:55:35.374Z,6.00
2019-03-31T13:58:07.641Z,6.77
2019-03-31T14:00:41.028Z,7.90
2019-03-31T14:03:10.836Z,6.90
2019-03-31T14:05:40.489Z,6.20
2019-03-31T14:08:24.666Z,8.27
2019-03-31T14:10:41.243Z,9.20
2019-03-31T14:13:10.949Z,8.00
2019-03-31T14:15:40.564Z,7.70
2019-03-31T14:18:10.248Z,8.37
2019-03-31T14:20:39.764Z,9.73
2019-03-31T14:23:09.285Z,9.83
2019-03-31T14:25:39.615Z,6.17
2019-03-31T14:28:09.123Z,6.90
2019-03-31T14:30:38.782Z,8.00
2019-03-31T14:33:08.517Z,8.67
2019-03-31T14:35:38.358Z,7.57
2019-03-31T14:38:08.133Z,7.70
2019-03-31T14:40:37.738Z,8.33
2019-03-31T14:43:07.318Z,10.27
2019-03-31T14:45:37.277Z,9.97
2019-03-31T14:48:07.802Z,6.87
2019-03-31T14:50:39.017Z,6.57
2019-03-31T14:53:09.073Z,7.43
2019-03-31T14:55:38.786Z,10.33
2019-03-31T14:58:08.695Z,7.60
2019-03-31T15:00:38.499Z,9.13
2019-03-31T15:03:08.322Z,7.47
2019-03-31T15:05:37.898Z,5.53
2019-03-31T15:08:07.674Z,6.57
2019-03-31T15:10:37.329Z,8.10
2019-03-31T15:13:06.926Z,6.87
2019-03-31T15:15:36.550Z,11.67
2019-03-31T15:18:06.273Z,9.50
2019-03-31T15:20:35.835Z,10.57
2019-03-31T15:23:05.731Z,9.80
2019-03-31T15:25:35.789Z,7.33
2019-03-31T15:28:05.390Z,6.70
2019-03-31T15:30:34.894Z,5.37
2019-03-31T15:33:04.466Z,7.17
2019-03-31T15:35:37.387Z,6.13
2019-03-31T15:38:05.382Z,5.63
2019-03-31T15:40:35.102Z,6.87
2019-03-31T15:43:04.738Z,7.03
2019-03-31T15:45:34.586Z,5.40
2019-03-31T15:48:04.290Z,6.40
2019-03-31T15:50:33.850Z,7.03
2019-03-31T15:53:03.484Z,6.23
2019-03-31T15:55:33.090Z,6.87
2019-03-31T15:58:05.327Z,7.83
2019-03-31T16:00:35.093Z,6.03
2019-03-31T16:03:04.683Z,8.47
2019-03-31T16:05:34.318Z,9.67
2019-03-31T16:08:03.430Z,6.67
2019-03-31T16:10:32.566Z,12.20
2019-03-31T16:13:01.707Z,6.43
2019-03-31T16:15:30.755Z,7.83
2019-03-31T16:17:59.730Z,7.20
2019-03-31T16:20:28.782Z,9.27
2019-03-31T16:22:57.800Z,7.37
2019-03-31T16:25:29.804Z,5.47
2019-03-31T16:27:58.779Z,8.97
2019-03-31T16:30:27.963Z,8.43
2019-03-31T16:32:56.947Z,15.77
2019-03-31T16:35:25.964Z,9.67
2019-03-31T16:37:54.946Z,9.43
2019-03-31T16:40:23.896Z,7.43
2019-03-31T16:42:52.799Z,6.37
2019-03-31T16:45:21.751Z,8.27
2019-03-31T16:47:51.163Z,7.17
2019-03-31T16:50:20.603Z,7.60
2019-03-31T16:52:52.499Z,6.43
2019-03-31T16:55:20.805Z,4.67
2019-03-31T16:57:49.855Z,6.13
2019-03-31T17:00:18.919Z,8.03
2019-03-31T17:02:47.920Z,5.40
2019-03-31T17:05:21.958Z,5.47
2019-03-31T17:07:48.147Z,4.10
2019-03-31T17:10:17.193Z,5.73
2019-03-31T17:12:46.179Z,5.23
2019-03-31T17:15:15.364Z,5.37
2019-03-31T17:17:44.376Z,7.60
2019-03-31T17:20:13.646Z,4.93
2019-03-31T17:22:42.700Z,3.63
2019-03-31T17:25:11.864Z,6.37
2019-03-31T17:27:41.472Z,5.37
2019-03-31T17:30:10.732Z,7.07
2019-03-31T17:32:39.768Z,3.97
2019-03-31T17:35:08.856Z,6.13
2019-03-31T17:37:37.812Z,5.13
2019-03-31T17:40:07.668Z,6.33
2019-03-31T17:42:37.113Z,5.23
2019-03-31T17:45:07.095Z,8.87
2019-03-31T17:47:36.128Z,4.33
2019-03-31T17:50:06.396Z,7.83
2019-03-31T17:52:35.348Z,6.27
2019-03-31T17:55:04.949Z,8.53
2019-03-31T17:57:34.009Z,5.43
2019-03-31T18:00:03.464Z,4.30
2019-03-31T18:02:32.541Z,6.57
2019-03-31T18:05:01.428Z,6.90
2019-03-31T18:07:30.717Z,8.20
2019-03-31T18:09:59.683Z,7.33
2019-03-31T18:12:28.745Z,8.53
2019-03-31T18:14:57.942Z,7.30
2019-03-31T18:17:26.417Z,10.40
2019-03-31T18:19:54.844Z,8.70
2019-03-31T18:22:23.328Z,10.57
2019-03-31T18:24:51.781Z,6.37
2019-03-31T18:27:20.608Z,10.83
2019-03-31T18:29:49.109Z,9.63
2019-03-31T18:32:17.621Z,10.00
2019-03-31T18:34:46.101Z,9.07
2019-03-31T18:37:14.581Z,9.87
2019-03-31T18:39:43.805Z,8.47
2019-03-31T18:42:12.305Z,8.37
2019-03-31T18:44:40.862Z,8.47
2019-03-31T18:47:09.417Z,7.57
2019-03-31T18:49:37.973Z,9.73
2019-03-31T18:52:06.517Z,8.77
2019-03-31T18:54:45.153Z,10.97
2019-03-31T18:57:38.949Z,7.63
2019-03-31T19:00:35.470Z,11.67
2019-03-31T19:03:12.881Z,10.27
2019-03-31T19:05:59.501Z,8.73
2019-03-31T19:08:38.586Z,8.83
2019-03-31T19:11:29.230Z,7.70
2019-03-31T19:14:26.154Z,7.63
2019-03-31T19:17:06.870Z,11.23
2019-03-31T19:20:13.307Z,9.43
2019-03-31T19:23:10.037Z,8.63
2019-03-31T19:25:56.487Z,8.00
2019-03-31T19:28:41.998Z,9.50
2019-03-31T19:31:29.931Z,4.77
2019-03-31T19:34:21.894Z,7.40
2019-03-31T19:37:12.427Z,8.70
2019-03-31T19:39:57.264Z,6.43
2019-03-31T19:42:38.922Z,10.33
2019-03-31T19:45:25.429Z,7.97
2019-03-31T19:48:19.110Z,8.17
2019-03-31T19:51:18.906Z,7.13
2019-03-31T19:53:55.397Z,11.60
2019-03-31T19:56:31.371Z,11.80
2019-03-31T19:59:24.878Z,6.70
2019-03-31T20:02:04.263Z,7.77
2019-03-31T20:05:03.975Z,7.97
2019-03-31T20:08:00.578Z,11.13
2019-03-31T20:10:48.617Z,7.70
2019-03-31T20:13:35.328Z,8.57
2019-03-31T20:16:38.089Z,10.73
2019-03-31T20:19:23.137Z,9.67
2019-03-31T20:21:57.121Z,8.10
2019-03-31T20:24:45.146Z,10.87
2019-03-31T20:27:31.742Z,13.17
2019-03-31T20:30:22.329Z,7.00
2019-03-31T20:33:01.805Z,7.17
2019-03-31T20:35:55.897Z,10.40
2019-03-31T20:38:43.471Z,9.27
2019-03-31T20:41:33.880Z,8.23
2019-03-31T20:44:02.353Z,9.57
2019-03-31T20:46:30.765Z,9.97
2019-03-31T20:48:59.178Z,13.53
2019-03-31T20:51:27.590Z,7.33
2019-03-31T20:53:56.094Z,9.07
2019-03-31T20:56:24.678Z,11.67
2019-03-31T20:58:53.177Z,8.13
2019-03-31T21:01:21.697Z,9.03
2019-03-31T21:03:50.122Z,10.27
2019-03-31T21:06:18.604Z,7.97
2019-03-31T21:08:47.114Z,10.80
2019-03-31T21:11:15.623Z,7.90
2019-03-31T21:16:13.502Z,10.27
2019-03-31T21:18:41.942Z,7.83
2019-03-31T21:21:10.354Z,9.20
2019-03-31T21:23:38.790Z,9.07
2019-03-31T21:26:07.630Z,8.20
2019-03-31T21:28:36.107Z,9.57
2019-03-31T21:31:04.630Z,5.80
2019-03-31T21:33:33.116Z,9.27
2019-03-31T21:36:01.626Z,9.60
2019-03-31T21:38:30.147Z,12.27
2019-03-31T21:40:58.589Z,11.30
2019-03-31T21:43:27.050Z,7.43
2019-03-31T21:45:55.518Z,8.03
2019-03-31T21:48:24.029Z,10.07
2019-03-31T21:50:52.554Z,7.97
2019-03-31T21:53:21.055Z,5.80
2019-03-31T21:55:49.490Z,5.73
2019-03-31T21:58:17.974Z,7.40
2019-03-31T22:00:57.228Z,10.00
2019-03-31T22:03:26.111Z,5.97
2019-03-31T22:05:54.603Z,5.63
2019-03-31T22:08:23.039Z,9.23
2019-03-31T22:10:51.627Z,4.60
2019-03-31T22:13:20.114Z,4.93
2019-03-31T22:15:49.207Z,7.10
2019-03-31T22:18:17.747Z,6.80
2019-03-31T22:20:47.459Z,7.33
2019-03-31T22:23:16.225Z,6.23
2019-03-31T22:25:44.708Z,6.07
2019-03-31T22:28:13.575Z,5.57
2019-03-31T22:30:41.987Z,6.07
2019-03-31T22:33:10.536Z,5.03
2019-03-31T22:35:39.079Z,7.50
2019-03-31T22:38:07.571Z,6.70
2019-03-31T22:40:36.184Z,6.37
2019-03-31T22:43:07.666Z,8.33
2019-03-31T22:45:34.812Z,7.10
2019-03-31T22:48:03.228Z,6.87
2019-03-31T22:50:31.653Z,5.43
2019-03-31T22:53:00.145Z,7.97
2019-03-31T22:55:28.631Z,7.60
2019-03-31T22:57:57.208Z,8.73
2019-03-31T23:00:26.968Z,7.17
2019-03-31T23:02:55.448Z,8.17
2019-03-31T23:05:23.983Z,15.70
2019-03-31T23:07:52.478Z,6.23
2019-03-31T23:10:21.000Z,8.53
2019-03-31T23:12:50.013Z,12.37
2019-03-31T23:15:18.418Z,6.37
2019-03-31T23:17:46.864Z,6.73
2019-03-31T23:20:15.433Z,5.17
2019-03-31T23:22:43.940Z,8.50
2019-03-31T23:25:12.848Z,7.33
2019-03-31T23:27:41.341Z,4.07
2019-03-31T23:30:10.901Z,7.37
2019-03-31T23:32:39.377Z,12.37
2019-03-31T23:35:07.965Z,6.53
2019-03-31T23:37:36.480Z,6.70
2019-03-31T23:40:05.235Z,6.23
2019-03-31T23:42:33.721Z,4.10
2019-03-31T23:45:02.241Z,6.73
2019-03-31T23:47:30.793Z,5.00
2019-03-31T23:49:59.228Z,5.87
2019-03-31T23:52:27.724Z,10.00
2019-03-31T23:54:56.172Z,11.37
2019-03-31T23:57:40.485Z,9.13
